sensor_id;sensor_type;location;lat;lon;timestamp;P1;durP1;ratioP1;P2;durP2;ratioP2
72573;SDS011;60603;52.548;13.420;2023-07-02T00:02:27;3.83;;;2.08;;
72573;SDS011;60603;52.548;13.420;2023-07-02T00:04:54;4.22;;;2.10;;
72573;SDS011;60603;52.548;13.420;2023-07-02T00:07:22;5.43;;;2.15;;
72573;SDS011;60603;52.548;13.420;2023-07-02T00:09:49;3.47;;;1.92;;
72573;SDS011;60603;52.548;13.420;2023-07-02T00:12:16;4.53;;;2.30;;
72573;SDS011;60603;52.548;13.420;2023-07-02T00:14:43;4.15;;;2.03;;
72573;SDS011;60603;52.548;13.420;2023-07-02T00:17:10;3.80;;;2.15;;
72573;SDS011;60603;52.548;13.420;2023-07-02T00:19:39;4.35;;;2.25;;
72573;SDS011;60603;52.548;13.420;2023-07-02T00:22:08;4.18;;;1.85;;
72573;SDS011;60603;52.548;13.420;2023-07-02T00:24:35;3.58;;;2.20;;
72573;SDS011;60603;52.548;13.420;2023-07-02T00:27:03;4.43;;;2.53;;
72573;SDS011;60603;52.548;13.420;2023-07-02T00:29:30;3.50;;;2.13;;
72573;SDS011;60603;52.548;13.420;2023-07-02T00:31:57;3.90;;;2.30;;
72573;SDS011;60603;52.548;13.420;2023-07-02T00:34:24;5.05;;;2.50;;
72573;SDS011;60603;52.548;13.420;2023-07-02T00:36:52;4.28;;;2.33;;
72573;SDS011;60603;52.548;13.420;2023-07-02T00:39:19;4.43;;;2.83;;
72573;SDS011;60603;52.548;13.420;2023-07-02T00:41:45;5.20;;;2.90;;
72573;SDS011;60603;52.548;13.420;2023-07-02T00:44:13;4.38;;;2.67;;
72573;SDS011;60603;52.548;13.420;2023-07-02T00:46:40;4.20;;;2.13;;
72573;SDS011;60603;52.548;13.420;2023-07-02T00:49:07;6.35;;;3.08;;
72573;SDS011;60603;52.548;13.420;2023-07-02T00:51:34;4.05;;;2.35;;
72573;SDS011;60603;52.548;13.420;2023-07-02T00:54:01;5.28;;;2.80;;
72573;SDS011;60603;52.548;13.420;2023-07-02T00:56:28;4.32;;;2.85;;
72573;SDS011;60603;52.548;13.420;2023-07-02T00:58:55;4.78;;;2.97;;
72573;SDS011;60603;52.548;13.420;2023-07-02T01:01:26;4.97;;;2.97;;
72573;SDS011;60603;52.548;13.420;2023-07-02T01:03:59;5.78;;;3.58;;
72573;SDS011;60603;52.548;13.420;2023-07-02T01:06:34;5.90;;;2.78;;
72573;SDS011;60603;52.548;13.420;2023-07-02T01:09:03;6.22;;;3.30;;
72573;SDS011;60603;52.548;13.420;2023-07-02T01:11:38;4.32;;;2.70;;
72573;SDS011;60603;52.548;13.420;2023-07-02T01:16:52;4.93;;;3.00;;
72573;SDS011;60603;52.548;13.420;2023-07-02T01:19:40;5.55;;;3.03;;
72573;SDS011;60603;52.548;13.420;2023-07-02T01:22:09;5.07;;;3.22;;
72573;SDS011;60603;52.548;13.420;2023-07-02T01:24:37;4.53;;;2.95;;
72573;SDS011;60603;52.548;13.420;2023-07-02T01:27:05;6.35;;;3.40;;
72573;SDS011;60603;52.548;13.420;2023-07-02T01:29:32;5.47;;;3.42;;
72573;SDS011;60603;52.548;13.420;2023-07-02T01:32:03;5.55;;;3.40;;
72573;SDS011;60603;52.548;13.420;2023-07-02T01:34:30;5.80;;;3.45;;
72573;SDS011;60603;52.548;13.420;2023-07-02T01:36:58;6.25;;;3.75;;
72573;SDS011;60603;52.548;13.420;2023-07-02T01:39:24;6.57;;;4.00;;
72573;SDS011;60603;52.548;13.420;2023-07-02T01:44:19;5.57;;;4.15;;
72573;SDS011;60603;52.548;13.420;2023-07-02T01:46:47;7.00;;;4.13;;
72573;SDS011;60603;52.548;13.420;2023-07-02T01:49:19;5.88;;;4.07;;
72573;SDS011;60603;52.548;13.420;2023-07-02T01:51:50;6.40;;;4.50;;
72573;SDS011;60603;52.548;13.420;2023-07-02T01:54:18;8.30;;;4.43;;
72573;SDS011;60603;52.548;13.420;2023-07-02T01:56:49;8.85;;;4.30;;
72573;SDS011;60603;52.548;13.420;2023-07-02T01:59:16;8.02;;;4.60;;
72573;SDS011;60603;52.548;13.420;2023-07-02T02:01:46;8.32;;;4.47;;
72573;SDS011;60603;52.548;13.420;2023-07-02T02:04:13;6.88;;;4.43;;
72573;SDS011;60603;52.548;13.420;2023-07-02T02:06:40;7.28;;;4.75;;
72573;SDS011;60603;52.548;13.420;2023-07-02T02:09:07;8.52;;;5.22;;
72573;SDS011;60603;52.548;13.420;2023-07-02T02:11:39;7.32;;;5.20;;
72573;SDS011;60603;52.548;13.420;2023-07-02T02:14:07;8.40;;;4.97;;
72573;SDS011;60603;52.548;13.420;2023-07-02T02:16:34;9.50;;;5.57;;
72573;SDS011;60603;52.548;13.420;2023-07-02T02:19:01;7.82;;;5.60;;
72573;SDS011;60603;52.548;13.420;2023-07-02T02:21:28;7.57;;;5.60;;
72573;SDS011;60603;52.548;13.420;2023-07-02T02:23:55;8.80;;;5.15;;
72573;SDS011;60603;52.548;13.420;2023-07-02T02:26:22;7.38;;;5.28;;
72573;SDS011;60603;52.548;13.420;2023-07-02T02:28:51;7.43;;;5.32;;
72573;SDS011;60603;52.548;13.420;2023-07-02T02:31:18;7.47;;;4.90;;
72573;SDS011;60603;52.548;13.420;2023-07-02T02:33:45;8.18;;;5.47;;
72573;SDS011;60603;52.548;13.420;2023-07-02T02:36:12;7.53;;;5.22;;
72573;SDS011;60603;52.548;13.420;2023-07-02T02:38:39;7.65;;;5.22;;
72573;SDS011;60603;52.548;13.420;2023-07-02T02:41:06;7.95;;;5.65;;
72573;SDS011;60603;52.548;13.420;2023-07-02T02:43:34;9.65;;;5.10;;
72573;SDS011;60603;52.548;13.420;2023-07-02T02:46:01;8.23;;;5.43;;
72573;SDS011;60603;52.548;13.420;2023-07-02T02:48:28;9.73;;;5.55;;
72573;SDS011;60603;52.548;13.420;2023-07-02T02:50:55;9.98;;;5.53;;
72573;SDS011;60603;52.548;13.420;2023-07-02T02:53:22;6.40;;;4.90;;
72573;SDS011;60603;52.548;13.420;2023-07-02T02:55:49;10.10;;;5.22;;
72573;SDS011;60603;52.548;13.420;2023-07-02T02:58:15;9.70;;;5.28;;
72573;SDS011;60603;52.548;13.420;2023-07-02T03:00:42;10.75;;;5.00;;
72573;SDS011;60603;52.548;13.420;2023-07-02T03:03:12;8.98;;;5.22;;
72573;SDS011;60603;52.548;13.420;2023-07-02T03:05:40;6.40;;;4.30;;
72573;SDS011;60603;52.548;13.420;2023-07-02T03:08:07;9.07;;;5.00;;
72573;SDS011;60603;52.548;13.420;2023-07-02T03:10:34;10.43;;;5.55;;
72573;SDS011;60603;52.548;13.420;2023-07-02T03:13:01;6.93;;;4.72;;
72573;SDS011;60603;52.548;13.420;2023-07-02T03:15:28;7.00;;;4.85;;
72573;SDS011;60603;52.548;13.420;2023-07-02T03:17:55;8.55;;;5.00;;
72573;SDS011;60603;52.548;13.420;2023-07-02T03:20:22;6.50;;;4.45;;
72573;SDS011;60603;52.548;13.420;2023-07-02T03:22:49;8.38;;;4.32;;
72573;SDS011;60603;52.548;13.420;2023-07-02T03:25:16;7.68;;;5.20;;
72573;SDS011;60603;52.548;13.420;2023-07-02T03:27:43;10.25;;;5.10;;
72573;SDS011;60603;52.548;13.420;2023-07-02T03:30:10;8.20;;;5.30;;
72573;SDS011;60603;52.548;13.420;2023-07-02T03:32:37;9.40;;;4.60;;
72573;SDS011;60603;52.548;13.420;2023-07-02T03:35:04;8.15;;;4.80;;
72573;SDS011;60603;52.548;13.420;2023-07-02T03:37:31;7.95;;;3.80;;
72573;SDS011;60603;52.548;13.420;2023-07-02T03:39:58;6.75;;;4.05;;
72573;SDS011;60603;52.548;13.420;2023-07-02T03:42:25;7.53;;;4.55;;
72573;SDS011;60603;52.548;13.420;2023-07-02T03:44:52;5.43;;;3.90;;
72573;SDS011;60603;52.548;13.420;2023-07-02T03:47:19;6.15;;;3.67;;
72573;SDS011;60603;52.548;13.420;2023-07-02T03:49:46;8.98;;;3.85;;
72573;SDS011;60603;52.548;13.420;2023-07-02T03:52:13;5.97;;;3.63;;
72573;SDS011;60603;52.548;13.420;2023-07-02T03:54:40;7.13;;;3.70;;
72573;SDS011;60603;52.548;13.420;2023-07-02T03:57:07;5.47;;;3.78;;
72573;SDS011;60603;52.548;13.420;2023-07-02T03:59:34;5.72;;;3.28;;
72573;SDS011;60603;52.548;13.420;2023-07-02T04:02:01;7.53;;;4.15;;
72573;SDS011;60603;52.548;13.420;2023-07-02T04:04:28;5.70;;;3.75;;
72573;SDS011;60603;52.548;13.420;2023-07-02T04:06:55;6.25;;;3.85;;
72573;SDS011;60603;52.548;13.420;2023-07-02T04:09:22;6.25;;;3.85;;
72573;SDS011;60603;52.548;13.420;2023-07-02T04:11:49;8.27;;;4.03;;
72573;SDS011;60603;52.548;13.420;2023-07-02T04:14:16;7.18;;;4.05;;
72573;SDS011;60603;52.548;13.420;2023-07-02T04:16:43;6.00;;;3.53;;
72573;SDS011;60603;52.548;13.420;2023-07-02T04:19:12;5.78;;;3.17;;
72573;SDS011;60603;52.548;13.420;2023-07-02T04:21:39;6.63;;;3.70;;
72573;SDS011;60603;52.548;13.420;2023-07-02T04:24:06;7.53;;;3.40;;
72573;SDS011;60603;52.548;13.420;2023-07-02T04:26:33;6.18;;;3.78;;
72573;SDS011;60603;52.548;13.420;2023-07-02T04:29:20;5.85;;;3.40;;
72573;SDS011;60603;52.548;13.420;2023-07-02T04:31:47;6.03;;;3.25;;
72573;SDS011;60603;52.548;13.420;2023-07-02T04:34:14;5.65;;;3.53;;
72573;SDS011;60603;52.548;13.420;2023-07-02T04:36:40;6.72;;;3.50;;
72573;SDS011;60603;52.548;13.420;2023-07-02T04:39:08;4.15;;;2.78;;
72573;SDS011;60603;52.548;13.420;2023-07-02T04:41:35;6.57;;;3.30;;
72573;SDS011;60603;52.548;13.420;2023-07-02T04:44:02;5.82;;;2.92;;
72573;SDS011;60603;52.548;13.420;2023-07-02T04:46:28;4.13;;;2.70;;
72573;SDS011;60603;52.548;13.420;2023-07-02T04:48:56;4.55;;;2.80;;
72573;SDS011;60603;52.548;13.420;2023-07-02T04:51:23;5.07;;;2.75;;
72573;SDS011;60603;52.548;13.420;2023-07-02T04:53:50;4.75;;;2.67;;
72573;SDS011;60603;52.548;13.420;2023-07-02T04:56:17;6.47;;;3.10;;
72573;SDS011;60603;52.548;13.420;2023-07-02T04:58:44;6.10;;;3.20;;
72573;SDS011;60603;52.548;13.420;2023-07-02T05:01:10;5.93;;;2.55;;
72573;SDS011;60603;52.548;13.420;2023-07-02T05:03:37;4.70;;;2.70;;
72573;SDS011;60603;52.548;13.420;2023-07-02T05:06:05;5.03;;;2.33;;
72573;SDS011;60603;52.548;13.420;2023-07-02T05:08:32;4.50;;;2.67;;
72573;SDS011;60603;52.548;13.420;2023-07-02T05:10:59;5.18;;;2.80;;
72573;SDS011;60603;52.548;13.420;2023-07-02T05:13:26;5.35;;;2.92;;
72573;SDS011;60603;52.548;13.420;2023-07-02T05:15:52;4.68;;;2.47;;
72573;SDS011;60603;52.548;13.420;2023-07-02T05:18:19;4.95;;;2.10;;
72573;SDS011;60603;52.548;13.420;2023-07-02T05:20:46;6.50;;;2.55;;
72573;SDS011;60603;52.548;13.420;2023-07-02T05:23:13;5.05;;;2.50;;
72573;SDS011;60603;52.548;13.420;2023-07-02T05:25:40;7.57;;;2.67;;
72573;SDS011;60603;52.548;13.420;2023-07-02T05:28:07;6.25;;;2.30;;
72573;SDS011;60603;52.548;13.420;2023-07-02T05:30:34;9.70;;;2.40;;
72573;SDS011;60603;52.548;13.420;2023-07-02T05:33:01;9.48;;;2.40;;
72573;SDS011;60603;52.548;13.420;2023-07-02T05:35:27;5.05;;;2.60;;
72573;SDS011;60603;52.548;13.420;2023-07-02T05:37:54;4.38;;;2.33;;
72573;SDS011;60603;52.548;13.420;2023-07-02T05:40:21;4.00;;;2.30;;
72573;SDS011;60603;52.548;13.420;2023-07-02T05:42:48;4.47;;;2.13;;
72573;SDS011;60603;52.548;13.420;2023-07-02T05:45:15;7.47;;;2.40;;
72573;SDS011;60603;52.548;13.420;2023-07-02T05:47:42;4.72;;;2.22;;
72573;SDS011;60603;52.548;13.420;2023-07-02T05:50:09;4.95;;;2.15;;
72573;SDS011;60603;52.548;13.420;2023-07-02T05:52:36;7.35;;;2.67;;
72573;SDS011;60603;52.548;13.420;2023-07-02T05:55:03;3.90;;;1.98;;
72573;SDS011;60603;52.548;13.420;2023-07-02T05:57:30;6.18;;;2.00;;
72573;SDS011;60603;52.548;13.420;2023-07-02T05:59:57;5.68;;;2.30;;
72573;SDS011;60603;52.548;13.420;2023-07-02T06:02:24;6.20;;;2.75;;
72573;SDS011;60603;52.548;13.420;2023-07-02T06:04:51;5.00;;;2.50;;
72573;SDS011;60603;52.548;13.420;2023-07-02T06:07:18;5.63;;;2.20;;
72573;SDS011;60603;52.548;13.420;2023-07-02T06:09:45;7.85;;;2.40;;
72573;SDS011;60603;52.548;13.420;2023-07-02T06:12:12;4.25;;;2.47;;
72573;SDS011;60603;52.548;13.420;2023-07-02T06:14:39;4.88;;;2.25;;
72573;SDS011;60603;52.548;13.420;2023-07-02T06:17:07;6.20;;;2.40;;
72573;SDS011;60603;52.548;13.420;2023-07-02T06:19:35;5.50;;;2.22;;
72573;SDS011;60603;52.548;13.420;2023-07-02T06:22:03;6.97;;;2.28;;
72573;SDS011;60603;52.548;13.420;2023-07-02T06:24:30;7.47;;;2.13;;
72573;SDS011;60603;52.548;13.420;2023-07-02T06:26:57;5.85;;;2.05;;
72573;SDS011;60603;52.548;13.420;2023-07-02T06:29:24;5.00;;;2.08;;
72573;SDS011;60603;52.548;13.420;2023-07-02T06:31:51;6.63;;;2.22;;
72573;SDS011;60603;52.548;13.420;2023-07-02T06:34:18;6.50;;;2.33;;
72573;SDS011;60603;52.548;13.420;2023-07-02T06:36:44;5.40;;;2.33;;
72573;SDS011;60603;52.548;13.420;2023-07-02T06:39:11;7.28;;;2.40;;
72573;SDS011;60603;52.548;13.420;2023-07-02T06:41:38;6.82;;;2.50;;
72573;SDS011;60603;52.548;13.420;2023-07-02T06:44:05;7.10;;;2.45;;
72573;SDS011;60603;52.548;13.420;2023-07-02T06:46:32;6.47;;;2.70;;
72573;SDS011;60603;52.548;13.420;2023-07-02T06:48:59;7.53;;;2.83;;
72573;SDS011;60603;52.548;13.420;2023-07-02T06:51:26;5.70;;;2.70;;
72573;SDS011;60603;52.548;13.420;2023-07-02T06:53:55;5.45;;;2.10;;
72573;SDS011;60603;52.548;13.420;2023-07-02T06:56:22;7.35;;;2.90;;
72573;SDS011;60603;52.548;13.420;2023-07-02T06:58:49;4.45;;;2.35;;
72573;SDS011;60603;52.548;13.420;2023-07-02T07:01:15;7.60;;;3.03;;
72573;SDS011;60603;52.548;13.420;2023-07-02T07:03:42;4.80;;;2.38;;
72573;SDS011;60603;52.548;13.420;2023-07-02T07:06:09;4.68;;;2.60;;
72573;SDS011;60603;52.548;13.420;2023-07-02T07:08:37;4.70;;;2.17;;
72573;SDS011;60603;52.548;13.420;2023-07-02T07:11:05;5.38;;;2.28;;
72573;SDS011;60603;52.548;13.420;2023-07-02T07:13:32;6.97;;;2.38;;
72573;SDS011;60603;52.548;13.420;2023-07-02T07:15:59;6.38;;;2.70;;
72573;SDS011;60603;52.548;13.420;2023-07-02T07:18:26;7.25;;;2.92;;
72573;SDS011;60603;52.548;13.420;2023-07-02T07:20:56;4.30;;;2.42;;
72573;SDS011;60603;52.548;13.420;2023-07-02T07:23:23;6.45;;;2.80;;
72573;SDS011;60603;52.548;13.420;2023-07-02T07:25:50;8.70;;;2.25;;
72573;SDS011;60603;52.548;13.420;2023-07-02T07:28:17;6.25;;;3.10;;
72573;SDS011;60603;52.548;13.420;2023-07-02T07:30:44;5.30;;;2.53;;
72573;SDS011;60603;52.548;13.420;2023-07-02T07:33:11;8.52;;;3.95;;
72573;SDS011;60603;52.548;13.420;2023-07-02T07:35:38;4.40;;;2.38;;
72573;SDS011;60603;52.548;13.420;2023-07-02T07:38:04;8.07;;;2.25;;
72573;SDS011;60603;52.548;13.420;2023-07-02T07:40:31;7.10;;;2.45;;
72573;SDS011;60603;52.548;13.420;2023-07-02T07:42:58;6.28;;;2.80;;
72573;SDS011;60603;52.548;13.420;2023-07-02T07:45:25;6.28;;;3.00;;
72573;SDS011;60603;52.548;13.420;2023-07-02T07:47:52;6.60;;;2.67;;
72573;SDS011;60603;52.548;13.420;2023-07-02T07:50:19;6.00;;;2.38;;
72573;SDS011;60603;52.548;13.420;2023-07-02T07:52:46;5.68;;;2.47;;
72573;SDS011;60603;52.548;13.420;2023-07-02T07:55:14;8.68;;;2.78;;
72573;SDS011;60603;52.548;13.420;2023-07-02T07:57:41;6.68;;;3.03;;
72573;SDS011;60603;52.548;13.420;2023-07-02T08:00:08;4.82;;;2.67;;
72573;SDS011;60603;52.548;13.420;2023-07-02T08:02:38;5.13;;;2.30;;
72573;SDS011;60603;52.548;13.420;2023-07-02T08:05:05;6.32;;;2.28;;
72573;SDS011;60603;52.548;13.420;2023-07-02T08:07:33;5.60;;;2.53;;
72573;SDS011;60603;52.548;13.420;2023-07-02T08:10:00;5.40;;;2.63;;
72573;SDS011;60603;52.548;13.420;2023-07-02T08:12:29;5.30;;;2.72;;
72573;SDS011;60603;52.548;13.420;2023-07-02T08:14:56;8.10;;;3.45;;
72573;SDS011;60603;52.548;13.420;2023-07-02T08:17:23;6.40;;;2.72;;
72573;SDS011;60603;52.548;13.420;2023-07-02T08:19:50;5.15;;;2.70;;
72573;SDS011;60603;52.548;13.420;2023-07-02T08:22:17;4.70;;;2.65;;
72573;SDS011;60603;52.548;13.420;2023-07-02T08:24:44;4.80;;;3.00;;
72573;SDS011;60603;52.548;13.420;2023-07-02T08:27:10;10.45;;;2.97;;
72573;SDS011;60603;52.548;13.420;2023-07-02T08:29:40;4.70;;;2.47;;
72573;SDS011;60603;52.548;13.420;2023-07-02T08:32:07;5.50;;;2.63;;
72573;SDS011;60603;52.548;13.420;2023-07-02T08:34:34;6.32;;;2.78;;
72573;SDS011;60603;52.548;13.420;2023-07-02T08:37:01;5.30;;;2.72;;
72573;SDS011;60603;52.548;13.420;2023-07-02T08:39:28;5.05;;;2.80;;
72573;SDS011;60603;52.548;13.420;2023-07-02T08:41:55;6.35;;;2.80;;
72573;SDS011;60603;52.548;13.420;2023-07-02T08:44:22;4.93;;;2.92;;
72573;SDS011;60603;52.548;13.420;2023-07-02T08:46:49;5.15;;;2.80;;
72573;SDS011;60603;52.548;13.420;2023-07-02T08:49:17;5.25;;;2.60;;
72573;SDS011;60603;52.548;13.420;2023-07-02T08:51:45;6.70;;;2.70;;
72573;SDS011;60603;52.548;13.420;2023-07-02T08:54:13;5.45;;;2.72;;
72573;SDS011;60603;52.548;13.420;2023-07-02T08:56:40;6.07;;;2.60;;
72573;SDS011;60603;52.548;13.420;2023-07-02T08:59:08;6.32;;;2.83;;
72573;SDS011;60603;52.548;13.420;2023-07-02T09:01:45;5.50;;;3.10;;
72573;SDS011;60603;52.548;13.420;2023-07-02T09:04:19;7.03;;;2.90;;
72573;SDS011;60603;52.548;13.420;2023-07-02T09:06:48;6.60;;;3.20;;
72573;SDS011;60603;52.548;13.420;2023-07-02T09:09:15;7.82;;;2.90;;
72573;SDS011;60603;52.548;13.420;2023-07-02T09:11:49;11.68;;;3.95;;
72573;SDS011;60603;52.548;13.420;2023-07-02T09:14:26;6.57;;;3.10;;
72573;SDS011;60603;52.548;13.420;2023-07-02T09:17:06;7.00;;;3.65;;
72573;SDS011;60603;52.548;13.420;2023-07-02T09:19:36;8.38;;;3.92;;
72573;SDS011;60603;52.548;13.420;2023-07-02T09:22:03;7.63;;;3.00;;
72573;SDS011;60603;52.548;13.420;2023-07-02T09:24:31;7.70;;;3.20;;
72573;SDS011;60603;52.548;13.420;2023-07-02T09:27:00;7.65;;;3.15;;
72573;SDS011;60603;52.548;13.420;2023-07-02T09:29:28;8.25;;;3.90;;
72573;SDS011;60603;52.548;13.420;2023-07-02T09:31:56;7.25;;;3.15;;
72573;SDS011;60603;52.548;13.420;2023-07-02T09:34:36;7.28;;;3.83;;
72573;SDS011;60603;52.548;13.420;2023-07-02T09:37:04;8.15;;;3.50;;
72573;SDS011;60603;52.548;13.420;2023-07-02T09:39:33;11.95;;;3.97;;
72573;SDS011;60603;52.548;13.420;2023-07-02T09:42:01;13.40;;;4.68;;
72573;SDS011;60603;52.548;13.420;2023-07-02T09:44:31;8.48;;;4.10;;
72573;SDS011;60603;52.548;13.420;2023-07-02T09:49:37;10.82;;;3.92;;
72573;SDS011;60603;52.548;13.420;2023-07-02T09:52:24;8.80;;;4.55;;
72573;SDS011;60603;52.548;13.420;2023-07-02T09:54:52;8.38;;;4.03;;
72573;SDS011;60603;52.548;13.420;2023-07-02T09:57:19;11.90;;;4.18;;
72573;SDS011;60603;52.548;13.420;2023-07-02T09:59:46;8.63;;;4.10;;
72573;SDS011;60603;52.548;13.420;2023-07-02T10:02:13;8.60;;;4.22;;
72573;SDS011;60603;52.548;13.420;2023-07-02T10:07:12;12.48;;;4.55;;
72573;SDS011;60603;52.548;13.420;2023-07-02T10:09:43;9.50;;;4.47;;
72573;SDS011;60603;52.548;13.420;2023-07-02T10:14:48;11.50;;;4.65;;
72573;SDS011;60603;52.548;13.420;2023-07-02T10:17:23;16.30;;;4.68;;
72573;SDS011;60603;52.548;13.420;2023-07-02T10:19:51;11.55;;;4.57;;
72573;SDS011;60603;52.548;13.420;2023-07-02T10:22:18;11.18;;;4.75;;
72573;SDS011;60603;52.548;13.420;2023-07-02T10:27:35;9.10;;;4.63;;
72573;SDS011;60603;52.548;13.420;2023-07-02T10:30:03;11.82;;;4.28;;
72573;SDS011;60603;52.548;13.420;2023-07-02T10:32:32;13.18;;;4.47;;
72573;SDS011;60603;52.548;13.420;2023-07-02T10:35:01;10.00;;;4.70;;
72573;SDS011;60603;52.548;13.420;2023-07-02T10:37:36;11.98;;;4.57;;
72573;SDS011;60603;52.548;13.420;2023-07-02T10:40:06;10.13;;;4.38;;
72573;SDS011;60603;52.548;13.420;2023-07-02T10:42:33;11.00;;;4.22;;
72573;SDS011;60603;52.548;13.420;2023-07-02T10:45:00;9.40;;;4.50;;
72573;SDS011;60603;52.548;13.420;2023-07-02T10:47:27;12.43;;;5.10;;
72573;SDS011;60603;52.548;13.420;2023-07-02T10:49:55;14.10;;;5.10;;
72573;SDS011;60603;52.548;13.420;2023-07-02T10:52:21;10.90;;;4.32;;
72573;SDS011;60603;52.548;13.420;2023-07-02T10:54:48;13.60;;;5.20;;
72573;SDS011;60603;52.548;13.420;2023-07-02T10:57:17;9.80;;;4.65;;
72573;SDS011;60603;52.548;13.420;2023-07-02T10:59:48;11.23;;;5.13;;
72573;SDS011;60603;52.548;13.420;2023-07-02T11:02:15;14.23;;;5.18;;
72573;SDS011;60603;52.548;13.420;2023-07-02T11:04:42;11.52;;;4.85;;
72573;SDS011;60603;52.548;13.420;2023-07-02T11:07:10;9.77;;;4.55;;
72573;SDS011;60603;52.548;13.420;2023-07-02T11:09:38;11.75;;;4.93;;
72573;SDS011;60603;52.548;13.420;2023-07-02T11:12:05;8.20;;;4.50;;
72573;SDS011;60603;52.548;13.420;2023-07-02T11:14:33;14.45;;;4.95;;
72573;SDS011;60603;52.548;13.420;2023-07-02T11:17:04;13.93;;;5.13;;
72573;SDS011;60603;52.548;13.420;2023-07-02T11:19:33;18.58;;;5.68;;
72573;SDS011;60603;52.548;13.420;2023-07-02T11:22:00;10.73;;;5.00;;
72573;SDS011;60603;52.548;13.420;2023-07-02T11:24:30;10.93;;;4.50;;
72573;SDS011;60603;52.548;13.420;2023-07-02T11:26:58;11.68;;;5.05;;
72573;SDS011;60603;52.548;13.420;2023-07-02T11:29:26;11.90;;;5.00;;
72573;SDS011;60603;52.548;13.420;2023-07-02T11:31:54;14.68;;;5.30;;
72573;SDS011;60603;52.548;13.420;2023-07-02T11:34:21;10.40;;;4.80;;
72573;SDS011;60603;52.548;13.420;2023-07-02T11:36:51;13.93;;;5.35;;
72573;SDS011;60603;52.548;13.420;2023-07-02T11:39:20;11.18;;;5.15;;
72573;SDS011;60603;52.548;13.420;2023-07-02T11:41:48;15.45;;;4.65;;
72573;SDS011;60603;52.548;13.420;2023-07-02T11:44:16;13.38;;;5.22;;
72573;SDS011;60603;52.548;13.420;2023-07-02T11:46:44;11.18;;;4.82;;
72573;SDS011;60603;52.548;13.420;2023-07-02T11:49:11;14.70;;;4.97;;
72573;SDS011;60603;52.548;13.420;2023-07-02T11:51:38;14.55;;;4.65;;
72573;SDS011;60603;52.548;13.420;2023-07-02T11:54:07;12.10;;;5.15;;
72573;SDS011;60603;52.548;13.420;2023-07-02T11:56:34;10.80;;;4.68;;
72573;SDS011;60603;52.548;13.420;2023-07-02T11:59:01;11.10;;;4.75;;
72573;SDS011;60603;52.548;13.420;2023-07-02T12:01:30;11.07;;;4.28;;
72573;SDS011;60603;52.548;13.420;2023-07-02T12:03:58;10.40;;;4.47;;
72573;SDS011;60603;52.548;13.420;2023-07-02T12:06:25;10.80;;;5.50;;
72573;SDS011;60603;52.548;13.420;2023-07-02T12:08:52;9.70;;;4.40;;
72573;SDS011;60603;52.548;13.420;2023-07-02T12:11:19;15.00;;;5.22;;
72573;SDS011;60603;52.548;13.420;2023-07-02T12:13:46;10.77;;;5.30;;
72573;SDS011;60603;52.548;13.420;2023-07-02T12:16:13;9.85;;;5.20;;
72573;SDS011;60603;52.548;13.420;2023-07-02T12:18:40;16.35;;;5.68;;
72573;SDS011;60603;52.548;13.420;2023-07-02T12:21:07;9.77;;;4.50;;
72573;SDS011;60603;52.548;13.420;2023-07-02T12:23:34;13.05;;;5.22;;
72573;SDS011;60603;52.548;13.420;2023-07-02T12:26:01;11.70;;;4.60;;
72573;SDS011;60603;52.548;13.420;2023-07-02T12:28:28;11.40;;;4.97;;
72573;SDS011;60603;52.548;13.420;2023-07-02T12:30:55;11.70;;;5.15;;
72573;SDS011;60603;52.548;13.420;2023-07-02T12:33:24;13.52;;;5.40;;
72573;SDS011;60603;52.548;13.420;2023-07-02T12:35:53;15.55;;;4.63;;
72573;SDS011;60603;52.548;13.420;2023-07-02T12:38:30;10.23;;;5.40;;
72573;SDS011;60603;52.548;13.420;2023-07-02T12:41:00;11.27;;;4.75;;
72573;SDS011;60603;52.548;13.420;2023-07-02T12:43:34;12.95;;;5.28;;
72573;SDS011;60603;52.548;13.420;2023-07-02T12:46:00;11.20;;;4.80;;
72573;SDS011;60603;52.548;13.420;2023-07-02T12:48:33;11.27;;;4.80;;
72573;SDS011;60603;52.548;13.420;2023-07-02T12:51:00;10.25;;;4.45;;
72573;SDS011;60603;52.548;13.420;2023-07-02T12:53:27;14.00;;;4.90;;
72573;SDS011;60603;52.548;13.420;2023-07-02T12:55:54;12.27;;;5.70;;
72573;SDS011;60603;52.548;13.420;2023-07-02T12:58:21;10.13;;;4.63;;
72573;SDS011;60603;52.548;13.420;2023-07-02T13:00:48;10.85;;;5.60;;
72573;SDS011;60603;52.548;13.420;2023-07-02T13:03:16;10.35;;;4.93;;
72573;SDS011;60603;52.548;13.420;2023-07-02T13:05:46;14.98;;;4.85;;
72573;SDS011;60603;52.548;13.420;2023-07-02T13:08:19;16.50;;;4.53;;
72573;SDS011;60603;52.548;13.420;2023-07-02T13:10:46;11.20;;;5.20;;
72573;SDS011;60603;52.548;13.420;2023-07-02T13:13:13;10.93;;;5.07;;
72573;SDS011;60603;52.548;13.420;2023-07-02T13:15:49;13.85;;;5.18;;
72573;SDS011;60603;52.548;13.420;2023-07-02T13:18:19;12.85;;;5.20;;
72573;SDS011;60603;52.548;13.420;2023-07-02T13:20:46;12.40;;;5.75;;
72573;SDS011;60603;52.548;13.420;2023-07-02T13:23:13;11.57;;;5.40;;
72573;SDS011;60603;52.548;13.420;2023-07-02T13:25:40;18.23;;;5.50;;
72573;SDS011;60603;52.548;13.420;2023-07-02T13:28:10;16.25;;;5.60;;
72573;SDS011;60603;52.548;13.420;2023-07-02T13:30:36;9.57;;;4.70;;
72573;SDS011;60603;52.548;13.420;2023-07-02T13:33:04;9.75;;;5.15;;
72573;SDS011;60603;52.548;13.420;2023-07-02T13:35:30;10.80;;;4.93;;
72573;SDS011;60603;52.548;13.420;2023-07-02T13:38:01;11.27;;;4.15;;
72573;SDS011;60603;52.548;13.420;2023-07-02T13:40:38;9.55;;;4.32;;
72573;SDS011;60603;52.548;13.420;2023-07-02T13:43:06;15.23;;;5.63;;
72573;SDS011;60603;52.548;13.420;2023-07-02T13:45:36;11.18;;;4.63;;
72573;SDS011;60603;52.548;13.420;2023-07-02T13:48:03;12.40;;;4.55;;
72573;SDS011;60603;52.548;13.420;2023-07-02T13:50:37;13.48;;;4.63;;
72573;SDS011;60603;52.548;13.420;2023-07-02T13:53:04;12.90;;;4.88;;
72573;SDS011;60603;52.548;13.420;2023-07-02T13:55:31;10.80;;;5.15;;
72573;SDS011;60603;52.548;13.420;2023-07-02T13:58:01;11.77;;;4.70;;
72573;SDS011;60603;52.548;13.420;2023-07-02T14:00:35;13.32;;;5.32;;
72573;SDS011;60603;52.548;13.420;2023-07-02T14:03:05;14.57;;;5.60;;
72573;SDS011;60603;52.548;13.420;2023-07-02T14:05:32;11.73;;;4.70;;
72573;SDS011;60603;52.548;13.420;2023-07-02T14:08:04;10.13;;;4.63;;
72573;SDS011;60603;52.548;13.420;2023-07-02T14:10:31;10.90;;;4.95;;
72573;SDS011;60603;52.548;13.420;2023-07-02T14:13:01;11.57;;;5.35;;
72573;SDS011;60603;52.548;13.420;2023-07-02T14:15:28;11.57;;;4.57;;
72573;SDS011;60603;52.548;13.420;2023-07-02T14:17:55;12.80;;;5.45;;
72573;SDS011;60603;52.548;13.420;2023-07-02T14:20:24;11.05;;;4.82;;
72573;SDS011;60603;52.548;13.420;2023-07-02T14:22:51;10.13;;;4.97;;
72573;SDS011;60603;52.548;13.420;2023-07-02T14:25:18;12.45;;;5.20;;
72573;SDS011;60603;52.548;13.420;2023-07-02T14:28:08;11.52;;;4.60;;
72573;SDS011;60603;52.548;13.420;2023-07-02T14:30:38;12.95;;;5.35;;
72573;SDS011;60603;52.548;13.420;2023-07-02T14:33:06;11.52;;;5.28;;
72573;SDS011;60603;52.548;13.420;2023-07-02T14:35:32;11.48;;;4.70;;
72573;SDS011;60603;52.548;13.420;2023-07-02T14:38:01;11.23;;;5.18;;
72573;SDS011;60603;52.548;13.420;2023-07-02T14:40:27;11.40;;;4.40;;
72573;SDS011;60603;52.548;13.420;2023-07-02T14:42:55;15.68;;;5.15;;
72573;SDS011;60603;52.548;13.420;2023-07-02T14:45:21;11.90;;;5.25;;
72573;SDS011;60603;52.548;13.420;2023-07-02T14:47:49;16.70;;;5.65;;
72573;SDS011;60603;52.548;13.420;2023-07-02T14:50:15;13.43;;;4.70;;
72573;SDS011;60603;52.548;13.420;2023-07-02T14:52:45;8.75;;;4.22;;